sensor_id;sensor_type;location;lat;lon;timestamp;P1;durP1;ratioP1;P2;durP2;ratioP2
20984;SDS011;10651;47.552;7.606;2023-01-19T06:12:58;17.13;;;11.20;;
20984;SDS011;10651;47.552;7.606;2023-01-19T06:15:24;19.60;;;11.75;;
20984;SDS011;10651;47.552;7.606;2023-01-19T06:17:49;19.50;;;11.40;;
20984;SDS011;10651;47.552;7.606;2023-01-19T06:20:15;20.63;;;11.30;;
20984;SDS011;10651;47.552;7.606;2023-01-19T06:22:41;12.53;;;10.63;;
20984;SDS011;10651;47.552;7.606;2023-01-19T06:25:07;16.00;;;11.53;;
20984;SDS011;10651;47.552;7.606;2023-01-19T06:27:33;17.13;;;11.37;;
20984;SDS011;10651;47.552;7.606;2023-01-19T06:29:59;16.97;;;12.63;;
20984;SDS011;10651;47.552;7.606;2023-01-19T06:32:28;14.83;;;11.03;;
20984;SDS011;10651;47.552;7.606;2023-01-19T06:34:55;14.00;;;11.73;;
20984;SDS011;10651;47.552;7.606;2023-01-19T06:37:20;18.33;;;12.07;;
20984;SDS011;10651;47.552;7.606;2023-01-19T06:39:46;13.80;;;10.93;;
20984;SDS011;10651;47.552;7.606;2023-01-19T06:42:11;17.77;;;10.80;;
20984;SDS011;10651;47.552;7.606;2023-01-19T06:44:37;13.70;;;11.30;;
20984;SDS011;10651;47.552;7.606;2023-01-19T06:47:07;12.20;;;10.33;;
20984;SDS011;10651;47.552;7.606;2023-01-19T06:49:58;15.13;;;10.85;;
20984;SDS011;10651;47.552;7.606;2023-01-19T06:52:24;12.30;;;10.30;;
20984;SDS011;10651;47.552;7.606;2023-01-19T06:54:50;13.23;;;10.43;;
20984;SDS011;10651;47.552;7.606;2023-01-19T06:57:15;13.90;;;10.43;;
20984;SDS011;10651;47.552;7.606;2023-01-19T06:59:42;15.80;;;10.97;;
20984;SDS011;10651;47.552;7.606;2023-01-19T07:02:08;15.00;;;10.77;;
20984;SDS011;10651;47.552;7.606;2023-01-19T07:04:35;22.93;;;11.30;;
20984;SDS011;10651;47.552;7.606;2023-01-19T07:07:01;11.83;;;10.63;;
20984;SDS011;10651;47.552;7.606;2023-01-19T07:09:26;14.57;;;10.97;;
20984;SDS011;10651;47.552;7.606;2023-01-19T07:11:52;14.07;;;11.23;;
20984;SDS011;10651;47.552;7.606;2023-01-19T07:14:18;13.63;;;11.83;;
20984;SDS011;10651;47.552;7.606;2023-01-19T07:16:45;15.10;;;11.83;;
20984;SDS011;10651;47.552;7.606;2023-01-19T07:19:11;14.67;;;11.57;;
20984;SDS011;10651;47.552;7.606;2023-01-19T07:21:38;15.03;;;12.00;;
20984;SDS011;10651;47.552;7.606;2023-01-19T07:24:04;16.63;;;11.70;;
20984;SDS011;10651;47.552;7.606;2023-01-19T07:26:30;20.17;;;11.37;;
20984;SDS011;10651;47.552;7.606;2023-01-19T07:28:55;18.37;;;11.00;;
20984;SDS011;10651;47.552;7.606;2023-01-19T07:31:21;13.50;;;10.80;;
20984;SDS011;10651;47.552;7.606;2023-01-19T07:33:47;12.63;;;10.97;;
20984;SDS011;10651;47.552;7.606;2023-01-19T07:36:12;16.80;;;11.30;;
20984;SDS011;10651;47.552;7.606;2023-01-19T07:38:38;17.97;;;11.80;;
20984;SDS011;10651;47.552;7.606;2023-01-19T07:41:05;12.93;;;11.60;;
20984;SDS011;10651;47.552;7.606;2023-01-19T07:43:32;13.57;;;11.77;;
20984;SDS011;10651;47.552;7.606;2023-01-19T07:45:58;19.07;;;11.57;;
20984;SDS011;10651;47.552;7.606;2023-01-19T07:48:25;13.90;;;12.03;;
20984;SDS011;10651;47.552;7.606;2023-01-19T07:50:51;15.97;;;12.00;;
20984;SDS011;10651;47.552;7.606;2023-01-19T07:53:17;13.03;;;11.53;;
20984;SDS011;10651;47.552;7.606;2023-01-19T07:55:43;13.70;;;12.27;;
20984;SDS011;10651;47.552;7.606;2023-01-19T07:58:09;16.87;;;11.83;;
20984;SDS011;10651;47.552;7.606;2023-01-19T08:00:36;12.83;;;10.90;;
20984;SDS011;10651;47.552;7.606;2023-01-19T08:03:03;13.30;;;11.90;;
20984;SDS011;10651;47.552;7.606;2023-01-19T08:05:29;13.13;;;11.40;;
20984;SDS011;10651;47.552;7.606;2023-01-19T08:07:57;14.47;;;10.90;;
20984;SDS011;10651;47.552;7.606;2023-01-19T08:10:23;16.10;;;11.97;;
20984;SDS011;10651;47.552;7.606;2023-01-19T08:12:53;15.90;;;11.50;;
20984;SDS011;10651;47.552;7.606;2023-01-19T08:15:21;14.67;;;11.87;;
20984;SDS011;10651;47.552;7.606;2023-01-19T08:17:58;17.77;;;11.73;;
20984;SDS011;10651;47.552;7.606;2023-01-19T08:20:26;17.67;;;12.20;;
20984;SDS011;10651;47.552;7.606;2023-01-19T08:22:52;13.43;;;12.10;;
20984;SDS011;10651;47.552;7.606;2023-01-19T08:25:24;17.53;;;12.47;;
20984;SDS011;10651;47.552;7.606;2023-01-19T08:27:57;13.73;;;11.73;;
20984;SDS011;10651;47.552;7.606;2023-01-19T08:30:22;20.33;;;12.33;;
20984;SDS011;10651;47.552;7.606;2023-01-19T08:32:51;19.17;;;13.00;;
20984;SDS011;10651;47.552;7.606;2023-01-19T08:35:18;16.37;;;12.20;;
20984;SDS011;10651;47.552;7.606;2023-01-19T08:37:44;17.83;;;11.60;;
20984;SDS011;10651;47.552;7.606;2023-01-19T08:40:10;16.80;;;12.47;;
20984;SDS011;10651;47.552;7.606;2023-01-19T08:42:36;16.93;;;11.07;;
20984;SDS011;10651;47.552;7.606;2023-01-19T08:45:02;21.97;;;14.20;;
20984;SDS011;10651;47.552;7.606;2023-01-19T08:47:28;12.57;;;10.27;;
20984;SDS011;10651;47.552;7.606;2023-01-19T08:49:53;12.03;;;10.07;;
20984;SDS011;10651;47.552;7.606;2023-01-19T08:52:19;15.13;;;10.30;;
20984;SDS011;10651;47.552;7.606;2023-01-19T08:54:45;17.20;;;10.50;;
20984;SDS011;10651;47.552;7.606;2023-01-19T08:57:11;15.67;;;10.93;;
20984;SDS011;10651;47.552;7.606;2023-01-19T08:59:36;14.17;;;9.60;;
20984;SDS011;10651;47.552;7.606;2023-01-19T09:02:02;18.47;;;10.33;;
20984;SDS011;10651;47.552;7.606;2023-01-19T09:04:28;11.83;;;9.77;;
20984;SDS011;10651;47.552;7.606;2023-01-19T09:06:54;11.57;;;9.47;;
20984;SDS011;10651;47.552;7.606;2023-01-19T09:09:19;14.47;;;10.27;;
20984;SDS011;10651;47.552;7.606;2023-01-19T09:11:45;14.47;;;9.03;;
20984;SDS011;10651;47.552;7.606;2023-01-19T09:14:11;13.30;;;8.93;;
20984;SDS011;10651;47.552;7.606;2023-01-19T09:16:36;23.97;;;9.93;;
20984;SDS011;10651;47.552;7.606;2023-01-19T09:19:02;12.83;;;9.87;;
20984;SDS011;10651;47.552;7.606;2023-01-19T09:21:28;15.93;;;9.67;;
20984;SDS011;10651;47.552;7.606;2023-01-19T09:23:54;12.13;;;9.07;;
20984;SDS011;10651;47.552;7.606;2023-01-19T09:26:20;16.87;;;8.80;;
20984;SDS011;10651;47.552;7.606;2023-01-19T09:28:47;16.73;;;8.73;;
20984;SDS011;10651;47.552;7.606;2023-01-19T09:31:13;14.47;;;8.30;;
20984;SDS011;10651;47.552;7.606;2023-01-19T09:33:39;12.23;;;8.57;;
20984;SDS011;10651;47.552;7.606;2023-01-19T09:36:04;11.10;;;8.60;;
20984;SDS011;10651;47.552;7.606;2023-01-19T09:38:30;11.33;;;8.50;;
20984;SDS011;10651;47.552;7.606;2023-01-19T09:40:57;15.50;;;8.18;;
20984;SDS011;10651;47.552;7.606;2023-01-19T09:43:43;9.97;;;7.50;;
20984;SDS011;10651;47.552;7.606;2023-01-19T09:48:47;14.13;;;8.03;;
20984;SDS011;10651;47.552;7.606;2023-01-19T09:53:52;11.80;;;7.82;;
20984;SDS011;10651;47.552;7.606;2023-01-19T09:56:26;10.63;;;6.63;;
20984;SDS011;10651;47.552;7.606;2023-01-19T09:58:53;18.45;;;7.47;;
20984;SDS011;10651;47.552;7.606;2023-01-19T10:01:21;9.68;;;6.72;;
20984;SDS011;10651;47.552;7.606;2023-01-19T10:06:32;10.25;;;6.47;;
20984;SDS011;10651;47.552;7.606;2023-01-19T10:12:07;9.20;;;7.30;;
20984;SDS011;10651;47.552;7.606;2023-01-19T10:15:14;11.95;;;6.95;;
20984;SDS011;10651;47.552;7.606;2023-01-19T10:18:16;11.52;;;7.75;;
20984;SDS011;10651;47.552;7.606;2023-01-19T10:20:49;9.02;;;6.97;;
20984;SDS011;10651;47.552;7.606;2023-01-19T10:23:38;10.88;;;5.97;;
20984;SDS011;10651;47.552;7.606;2023-01-19T10:26:11;10.40;;;6.15;;
20984;SDS011;10651;47.552;7.606;2023-01-19T10:28:42;8.43;;;5.72;;
20984;SDS011;10651;47.552;7.606;2023-01-19T10:31:12;11.52;;;6.30;;
20984;SDS011;10651;47.552;7.606;2023-01-19T10:33:39;8.25;;;6.13;;
20984;SDS011;10651;47.552;7.606;2023-01-19T10:36:08;10.55;;;5.97;;
20984;SDS011;10651;47.552;7.606;2023-01-19T10:38:41;10.02;;;5.35;;
20984;SDS011;10651;47.552;7.606;2023-01-19T10:41:09;7.65;;;5.75;;
20984;SDS011;10651;47.552;7.606;2023-01-19T10:43:43;7.10;;;5.32;;
20984;SDS011;10651;47.552;7.606;2023-01-19T10:46:15;7.63;;;5.22;;
20984;SDS011;10651;47.552;7.606;2023-01-19T10:48:47;8.52;;;5.75;;
20984;SDS011;10651;47.552;7.606;2023-01-19T10:51:14;8.95;;;5.00;;
20984;SDS011;10651;47.552;7.606;2023-01-19T10:53:41;7.40;;;5.07;;
20984;SDS011;10651;47.552;7.606;2023-01-19T10:56:35;11.15;;;5.78;;
20984;SDS011;10651;47.552;7.606;2023-01-19T10:59:03;7.25;;;5.68;;
20984;SDS011;10651;47.552;7.606;2023-01-19T11:01:31;9.00;;;5.88;;
20984;SDS011;10651;47.552;7.606;2023-01-19T11:04:01;6.55;;;5.18;;
20984;SDS011;10651;47.552;7.606;2023-01-19T11:06:45;9.75;;;4.95;;
20984;SDS011;10651;47.552;7.606;2023-01-19T11:09:14;9.27;;;5.18;;
20984;SDS011;10651;47.552;7.606;2023-01-19T11:11:53;9.98;;;6.05;;
20984;SDS011;10651;47.552;7.606;2023-01-19T11:14:22;8.35;;;5.55;;
20984;SDS011;10651;47.552;7.606;2023-01-19T11:16:50;8.85;;;5.53;;
20984;SDS011;10651;47.552;7.606;2023-01-19T11:19:23;9.73;;;5.82;;
20984;SDS011;10651;47.552;7.606;2023-01-19T11:22:07;10.38;;;6.82;;
20984;SDS011;10651;47.552;7.606;2023-01-19T11:24:51;13.68;;;6.93;;
20984;SDS011;10651;47.552;7.606;2023-01-19T11:27:20;11.45;;;6.85;;
20984;SDS011;10651;47.552;7.606;2023-01-19T11:29:47;12.05;;;7.28;;
20984;SDS011;10651;47.552;7.606;2023-01-19T11:32:21;10.18;;;7.00;;
20984;SDS011;10651;47.552;7.606;2023-01-19T11:34:51;8.23;;;5.28;;
20984;SDS011;10651;47.552;7.606;2023-01-19T11:39:49;7.30;;;6.00;;
20984;SDS011;10651;47.552;7.606;2023-01-19T11:42:27;9.05;;;6.80;;
20984;SDS011;10651;47.552;7.606;2023-01-19T11:45:02;8.55;;;6.20;;
20984;SDS011;10651;47.552;7.606;2023-01-19T11:47:43;6.53;;;5.53;;
20984;SDS011;10651;47.552;7.606;2023-01-19T11:52:54;13.45;;;6.43;;
20984;SDS011;10651;47.552;7.606;2023-01-19T11:58:07;8.05;;;5.78;;
20984;SDS011;10651;47.552;7.606;2023-01-19T12:00:41;6.47;;;5.00;;
20984;SDS011;10651;47.552;7.606;2023-01-19T12:03:25;6.97;;;5.47;;
20984;SDS011;10651;47.552;7.606;2023-01-19T12:05:59;7.75;;;5.70;;
20984;SDS011;10651;47.552;7.606;2023-01-19T12:08:30;8.45;;;5.53;;
20984;SDS011;10651;47.552;7.606;2023-01-19T12:11:09;5.53;;;4.15;;
20984;SDS011;10651;47.552;7.606;2023-01-19T12:13:40;4.50;;;3.17;;
20984;SDS011;10651;47.552;7.606;2023-01-19T12:18:47;4.32;;;3.00;;
20984;SDS011;10651;47.552;7.606;2023-01-19T12:21:19;5.43;;;3.08;;
20984;SDS011;10651;47.552;7.606;2023-01-19T12:26:27;4.53;;;3.72;;
20984;SDS011;10651;47.552;7.606;2023-01-19T12:29:21;8.95;;;4.05;;
20984;SDS011;10651;47.552;7.606;2023-01-19T12:32:53;8.93;;;3.67;;
20984;SDS011;10651;47.552;7.606;2023-01-19T12:34:58;6.13;;;3.22;;
20984;SDS011;10651;47.552;7.606;2023-01-19T12:40:02;4.07;;;2.80;;
20984;SDS011;10651;47.552;7.606;2023-01-19T12:42:38;3.78;;;2.90;;
20984;SDS011;10651;47.552;7.606;2023-01-19T12:45:17;5.20;;;2.92;;
20984;SDS011;10651;47.552;7.606;2023-01-19T12:47:53;6.80;;;3.28;;
20984;SDS011;10651;47.552;7.606;2023-01-19T12:50:20;5.78;;;3.00;;
20984;SDS011;10651;47.552;7.606;2023-01-19T12:52:53;3.90;;;2.90;;
20984;SDS011;10651;47.552;7.606;2023-01-19T12:55:26;6.00;;;3.38;;
20984;SDS011;10651;47.552;7.606;2023-01-19T12:58:02;4.07;;;3.65;;
20984;SDS011;10651;47.552;7.606;2023-01-19T13:00:40;6.43;;;3.40;;
20984;SDS011;10651;47.552;7.606;2023-01-19T13:13:19;6.60;;;3.95;;
20984;SDS011;10651;47.552;7.606;2023-01-19T13:15:46;5.70;;;4.20;;
20984;SDS011;10651;47.552;7.606;2023-01-19T13:18:16;7.28;;;4.80;;
20984;SDS011;10651;47.552;7.606;2023-01-19T13:20:58;11.68;;;4.88;;
20984;SDS011;10651;47.552;7.606;2023-01-19T13:23:27;9.88;;;4.88;;
20984;SDS011;10651;47.552;7.606;2023-01-19T13:26:14;10.57;;;4.82;;
20984;SDS011;10651;47.552;7.606;2023-01-19T13:28:45;5.63;;;4.95;;
20984;SDS011;10651;47.552;7.606;2023-01-19T13:31:13;7.50;;;4.78;;
20984;SDS011;10651;47.552;7.606;2023-01-19T13:36:30;8.60;;;5.30;;
20984;SDS011;10651;47.552;7.606;2023-01-19T13:39:00;8.80;;;5.30;;
20984;SDS011;10651;47.552;7.606;2023-01-19T13:41:29;10.05;;;5.43;;
20984;SDS011;10651;47.552;7.606;2023-01-19T13:44:01;6.22;;;5.13;;
20984;SDS011;10651;47.552;7.606;2023-01-19T13:46:48;9.23;;;5.53;;
20984;SDS011;10651;47.552;7.606;2023-01-19T13:49:19;7.95;;;5.25;;
20984;SDS011;10651;47.552;7.606;2023-01-19T13:52:06;6.85;;;5.53;;
20984;SDS011;10651;47.552;7.606;2023-01-19T13:54:58;9.73;;;5.47;;
20984;SDS011;10651;47.552;7.606;2023-01-19T14:00:03;12.75;;;6.13;;
20984;SDS011;10651;47.552;7.606;2023-01-19T14:05:48;6.90;;;5.28;;
20984;SDS011;10651;47.552;7.606;2023-01-19T14:08:16;6.53;;;5.32;;
20984;SDS011;10651;47.552;7.606;2023-01-19T14:13:22;9.38;;;5.40;;
20984;SDS011;10651;47.552;7.606;2023-01-19T14:15:57;10.48;;;6.20;;
20984;SDS011;10651;47.552;7.606;2023-01-19T14:18:28;13.35;;;5.82;;
20984;SDS011;10651;47.552;7.606;2023-01-19T14:23:42;13.50;;;5.85;;
20984;SDS011;10651;47.552;7.606;2023-01-19T14:31:50;9.27;;;5.82;;
20984;SDS011;10651;47.552;7.606;2023-01-19T14:39:44;7.07;;;5.70;;
20984;SDS011;10651;47.552;7.606;2023-01-19T14:42:22;9.00;;;5.85;;
20984;SDS011;10651;47.552;7.606;2023-01-19T14:44:55;11.05;;;5.75;;
20984;SDS011;10651;47.552;7.606;2023-01-19T14:47:27;9.00;;;5.97;;
20984;SDS011;10651;47.552;7.606;2023-01-19T14:50:05;6.97;;;6.25;;
20984;SDS011;10651;47.552;7.606;2023-01-19T14:52:41;7.88;;;6.43;;
20984;SDS011;10651;47.552;7.606;2023-01-19T14:55:19;10.00;;;5.95;;
20984;SDS011;10651;47.552;7.606;2023-01-19T14:57:53;6.72;;;5.72;;
20984;SDS011;10651;47.552;7.606;2023-01-19T15:00:19;8.32;;;5.90;;
20984;SDS011;10651;47.552;7.606;2023-01-19T15:02:45;8.15;;;5.63;;
20984;SDS011;10651;47.552;7.606;2023-01-19T15:05:12;12.48;;;6.03;;
20984;SDS011;10651;47.552;7.606;2023-01-19T15:07:39;6.97;;;6.00;;
20984;SDS011;10651;47.552;7.606;2023-01-19T15:10:25;6.70;;;5.70;;
20984;SDS011;10651;47.552;7.606;2023-01-19T15:12:51;8.50;;;5.95;;
20984;SDS011;10651;47.552;7.606;2023-01-19T15:15:19;7.15;;;5.47;;
20984;SDS011;10651;47.552;7.606;2023-01-19T15:17:50;7.88;;;5.70;;
20984;SDS011;10651;47.552;7.606;2023-01-19T15:20:19;7.57;;;5.75;;
20984;SDS011;10651;47.552;7.606;2023-01-19T15:22:46;10.77;;;6.22;;
20984;SDS011;10651;47.552;7.606;2023-01-19T15:25:17;8.55;;;6.25;;
20984;SDS011;10651;47.552;7.606;2023-01-19T15:27:45;10.13;;;6.70;;
20984;SDS011;10651;47.552;7.606;2023-01-19T15:30:12;10.85;;;6.03;;
20984;SDS011;10651;47.552;7.606;2023-01-19T15:32:41;8.50;;;6.15;;
20984;SDS011;10651;47.552;7.606;2023-01-19T15:35:12;8.98;;;6.18;;
20984;SDS011;10651;47.552;7.606;2023-01-19T15:37:38;15.05;;;6.30;;
20984;SDS011;10651;47.552;7.606;2023-01-19T15:40:04;8.98;;;7.03;;
20984;SDS011;10651;47.552;7.606;2023-01-19T15:42:31;8.13;;;6.95;;
20984;SDS011;10651;47.552;7.606;2023-01-19T15:44:57;16.23;;;9.15;;
20984;SDS011;10651;47.552;7.606;2023-01-19T15:47:23;13.73;;;9.27;;
20984;SDS011;10651;47.552;7.606;2023-01-19T15:49:49;15.88;;;8.98;;
20984;SDS011;10651;47.552;7.606;2023-01-19T15:52:14;15.18;;;9.43;;
20984;SDS011;10651;47.552;7.606;2023-01-19T15:54:40;12.80;;;8.82;;
20984;SDS011;10651;47.552;7.606;2023-01-19T15:57:06;13.10;;;8.95;;
20984;SDS011;10651;47.552;7.606;2023-01-19T15:59:32;12.73;;;8.48;;
20984;SDS011;10651;47.552;7.606;2023-01-19T16:01:58;10.95;;;7.82;;
20984;SDS011;10651;47.552;7.606;2023-01-19T16:04:24;17.30;;;8.55;;
20984;SDS011;10651;47.552;7.606;2023-01-19T16:06:49;12.50;;;9.00;;
20984;SDS011;10651;47.552;7.606;2023-01-19T16:09:15;15.70;;;9.07;;
20984;SDS011;10651;47.552;7.606;2023-01-19T16:11:44;15.15;;;9.95;;
20984;SDS011;10651;47.552;7.606;2023-01-19T16:14:10;11.65;;;9.40;;
20984;SDS011;10651;47.552;7.606;2023-01-19T16:16:36;15.48;;;9.73;;
20984;SDS011;10651;47.552;7.606;2023-01-19T16:19:02;14.25;;;9.90;;
20984;SDS011;10651;47.552;7.606;2023-01-19T16:21:28;12.45;;;9.07;;
20984;SDS011;10651;47.552;7.606;2023-01-19T16:23:54;14.02;;;9.60;;
20984;SDS011;10651;47.552;7.606;2023-01-19T16:26:27;12.37;;;9.47;;
20984;SDS011;10651;47.552;7.606;2023-01-19T16:28:59;14.18;;;9.20;;
20984;SDS011;10651;47.552;7.606;2023-01-19T16:31:27;11.18;;;8.63;;
20984;SDS011;10651;47.552;7.606;2023-01-19T16:33:53;13.27;;;9.25;;
20984;SDS011;10651;47.552;7.606;2023-01-19T16:36:23;13.48;;;8.27;;
20984;SDS011;10651;47.552;7.606;2023-01-19T16:38:53;16.90;;;9.82;;
20984;SDS011;10651;47.552;7.606;2023-01-19T16:41:21;15.00;;;9.32;;
20984;SDS011;10651;47.552;7.606;2023-01-19T16:43:51;12.82;;;9.30;;
20984;SDS011;10651;47.552;7.606;2023-01-19T16:46:19;14.40;;;8.73;;
20984;SDS011;10651;47.552;7.606;2023-01-19T16:48:49;11.13;;;8.75;;
20984;SDS011;10651;47.552;7.606;2023-01-19T16:51:15;11.50;;;9.20;;
20984;SDS011;10651;47.552;7.606;2023-01-19T16:53:41;12.20;;;9.07;;
20984;SDS011;10651;47.552;7.606;2023-01-19T16:56:08;10.52;;;8.68;;
20984;SDS011;10651;47.552;7.606;2023-01-19T16:58:38;15.03;;;8.90;;
20984;SDS011;10651;47.552;7.606;2023-01-19T17:01:06;11.33;;;8.57;;
20984;SDS011;10651;47.552;7.606;2023-01-19T17:03:36;11.35;;;8.60;;
20984;SDS011;10651;47.552;7.606;2023-01-19T17:06:03;12.50;;;8.93;;
20984;SDS011;10651;47.552;7.606;2023-01-19T17:08:31;12.77;;;8.25;;
20984;SDS011;10651;47.552;7.606;2023-01-19T17:10:57;14.67;;;8.57;;
20984;SDS011;10651;47.552;7.606;2023-01-19T17:13:25;11.20;;;8.52;;
20984;SDS011;10651;47.552;7.606;2023-01-19T17:15:50;11.17;;;8.73;;
20984;SDS011;10651;47.552;7.606;2023-01-19T17:18:16;12.60;;;8.37;;
20984;SDS011;10651;47.552;7.606;2023-01-19T17:20:42;9.63;;;8.17;;
20984;SDS011;10651;47.552;7.606;2023-01-19T17:23:07;12.75;;;8.40;;
20984;SDS011;10651;47.552;7.606;2023-01-19T17:25:33;9.87;;;8.03;;
20984;SDS011;10651;47.552;7.606;2023-01-19T17:27:59;12.23;;;8.00;;
20984;SDS011;10651;47.552;7.606;2023-01-19T17:30:25;11.73;;;8.93;;
20984;SDS011;10651;47.552;7.606;2023-01-19T17:32:51;12.15;;;9.52;;
20984;SDS011;10651;47.552;7.606;2023-01-19T17:35:16;11.60;;;8.80;;
20984;SDS011;10651;47.552;7.606;2023-01-19T17:37:42;14.95;;;9.55;;
20984;SDS011;10651;47.552;7.606;2023-01-19T17:40:08;12.07;;;8.53;;
20984;SDS011;10651;47.552;7.606;2023-01-19T17:42:37;12.32;;;8.63;;
20984;SDS011;10651;47.552;7.606;2023-01-19T17:45:05;16.98;;;8.32;;
20984;SDS011;10651;47.552;7.606;2023-01-19T17:47:31;10.30;;;8.07;;
20984;SDS011;10651;47.552;7.606;2023-01-19T17:49:56;10.98;;;8.38;;
20984;SDS011;10651;47.552;7.606;2023-01-19T17:52:22;10.30;;;8.30;;
20984;SDS011;10651;47.552;7.606;2023-01-19T17:54:48;11.63;;;8.33;;
20984;SDS011;10651;47.552;7.606;2023-01-19T17:57:13;11.40;;;8.60;;
20984;SDS011;10651;47.552;7.606;2023-01-19T17:59:39;11.60;;;8.40;;
20984;SDS011;10651;47.552;7.606;2023-01-19T18:02:08;10.02;;;8.60;;
20984;SDS011;10651;47.552;7.606;2023-01-19T18:04:36;11.80;;;8.47;;
20984;SDS011;10651;47.552;7.606;2023-01-19T18:07:02;13.10;;;8.80;;
20984;SDS011;10651;47.552;7.606;2023-01-19T18:09:28;11.75;;;8.35;;
20984;SDS011;10651;47.552;7.606;2023-01-19T18:11:53;11.67;;;8.03;;
20984;SDS011;10651;47.552;7.606;2023-01-19T18:14:19;11.17;;;8.47;;
20984;SDS011;10651;47.552;7.606;2023-01-19T18:16:45;11.63;;;8.90;;
20984;SDS011;10651;47.552;7.606;2023-01-19T18:19:10;11.20;;;8.90;;
20984;SDS011;10651;47.552;7.606;2023-01-19T18:21:36;12.37;;;8.63;;
20984;SDS011;10651;47.552;7.606;2023-01-19T18:24:02;14.60;;;9.57;;
20984;SDS011;10651;47.552;7.606;2023-01-19T18:26:29;17.37;;;9.37;;
20984;SDS011;10651;47.552;7.606;2023-01-19T18:28:56;11.23;;;9.40;;
20984;SDS011;10651;47.552;7.606;2023-01-19T18:31:23;16.50;;;10.45;;
20984;SDS011;10651;47.552;7.606;2023-01-19T18:33:49;13.90;;;10.60;;
20984;SDS011;10651;47.552;7.606;2023-01-19T18:36:15;13.30;;;10.87;;
20984;SDS011;10651;47.552;7.606;2023-01-19T18:38:41;13.23;;;10.07;;
20984;SDS011;10651;47.552;7.606;2023-01-19T18:41:12;15.03;;;9.80;;
20984;SDS011;10651;47.552;7.606;2023-01-19T18:43:38;12.10;;;10.43;;
20984;SDS011;10651;47.552;7.606;2023-01-19T18:46:04;13.10;;;10.47;;
20984;SDS011;10651;47.552;7.606;2023-01-19T18:48:30;16.10;;;10.73;;
20984;SDS011;10651;47.552;7.606;2023-01-19T18:50:56;18.60;;;10.73;;
20984;SDS011;10651;47.552;7.606;2023-01-19T18:53:27;13.97;;;11.00;;
20984;SDS011;10651;47.552;7.606;2023-01-19T18:55:54;16.70;;;11.27;;
20984;SDS011;10651;47.552;7.606;2023-01-19T18:58:21;17.23;;;11.40;;
20984;SDS011;10651;47.552;7.606;2023-01-19T19:00:47;18.33;;;12.57;;
20984;SDS011;10651;47.552;7.606;2023-01-19T19:03:13;16.97;;;11.33;;
20984;SDS011;10651;47.552;7.606;2023-01-19T19:05:40;17.63;;;11.53;;
20984;SDS011;10651;47.552;7.606;2023-01-19T19:08:06;20.00;;;12.17;;
20984;SDS011;10651;47.552;7.606;2023-01-19T19:10:32;16.53;;;11.33;;
20984;SDS011;10651;47.552;7.606;2023-01-19T19:12:58;18.95;;;12.60;;
20984;SDS011;10651;47.552;7.606;2023-01-19T19:15:24;18.53;;;11.00;;
20984;SDS011;10651;47.552;7.606;2023-01-19T19:17:51;20.23;;;12.57;;
20984;SDS011;10651;47.552;7.606;2023-01-19T19:20:17;17.97;;;12.03;;
20984;SDS011;10651;47.552;7.606;2023-01-19T19:22:44;16.77;;;12.33;;
20984;SDS011;10651;47.552;7.606;2023-01-19T19:25:10;17.47;;;12.40;;
20984;SDS011;10651;47.552;7.606;2023-01-19T19:27:36;18.87;;;13.33;;
20984;SDS011;10651;47.552;7.606;2023-01-19T19:30:02;19.87;;;13.57;;
20984;SDS011;10651;47.552;7.606;2023-01-19T19:32:28;18.03;;;13.13;;
20984;SDS011;10651;47.552;7.606;2023-01-19T19:34:54;21.57;;;13.53;;
20984;SDS011;10651;47.552;7.606;2023-01-19T19:37:22;19.87;;;12.73;;
20984;SDS011;10651;47.552;7.606;2023-01-19T19:39:47;17.37;;;12.67;;
20984;SDS011;10651;47.552;7.606;2023-01-19T19:42:13;17.77;;;13.52;;
20984;SDS011;10651;47.552;7.606;2023-01-19T19:44:39;19.20;;;13.50;;
20984;SDS011;10651;47.552;7.606;2023-01-19T19:47:04;24.63;;;15.33;;
20984;SDS011;10651;47.552;7.606;2023-01-19T19:49:30;18.60;;;13.33;;
20984;SDS011;10651;47.552;7.606;2023-01-19T19:51:56;22.20;;;13.63;;
20984;SDS011;10651;47.552;7.606;2023-01-19T19:54:22;18.53;;;13.53;;
20984;SDS011;10651;47.552;7.606;2023-01-19T19:56:48;19.97;;;13.43;;
20984;SDS011;10651;47.552;7.606;2023-01-19T19:59:16;18.43;;;13.37;;
20984;SDS011;10651;47.552;7.606;2023-01-19T20:01:42;19.80;;;13.77;;
20984;SDS011;10651;47.552;7.606;2023-01-19T20:04:09;22.63;;;13.57;;
20984;SDS011;10651;47.552;7.606;2023-01-19T20:06:37;21.30;;;13.73;;
20984;SDS011;10651;47.552;7.606;2023-01-19T20:09:05;26.23;;;14.97;;
20984;SDS011;10651;47.552;7.606;2023-01-19T20:11:33;25.13;;;14.97;;
20984;SDS011;10651;47.552;7.606;2023-01-19T20:14:02;21.97;;;14.60;;
20984;SDS011;10651;47.552;7.606;2023-01-19T20:16:29;20.80;;;14.67;;
20984;SDS011;10651;47.552;7.606;2023-01-19T20:18:55;21.60;;;14.73;;
20984;SDS011;10651;47.552;7.606;2023-01-19T20:21:29;18.77;;;14.23;;
20984;SDS011;10651;47.552;7.606;2023-01-19T20:23:58;18.47;;;13.67;;
20984;SDS011;10651;47.552;7.606;2023-01-19T20:26:25;24.53;;;15.00;;
20984;SDS011;10651;47.552;7.606;2023-01-19T20:28:55;19.47;;;14.30;;
20984;SDS011;10651;47.552;7.606;2023-01-19T20:31:24;25.37;;;14.53;;
20984;SDS011;10651;47.552;7.606;2023-01-19T20:33:52;22.00;;;14.27;;
20984;SDS011;10651;47.552;7.606;2023-01-19T20:36:19;21.77;;;14.27;;
20984;SDS011;10651;47.552;7.606;2023-01-19T20:38:49;18.83;;;14.63;;
20984;SDS011;10651;47.552;7.606;2023-01-19T20:41:15;24.10;;;14.13;;
20984;SDS011;10651;47.552;7.606;2023-01-19T20:43:41;24.37;;;14.63;;
20984;SDS011;10651;47.552;7.606;2023-01-19T20:46:07;23.17;;;15.47;;
20984;SDS011;10651;47.552;7.606;2023-01-19T20:48:33;19.57;;;14.30;;
20984;SDS011;10651;47.552;7.606;2023-01-19T20:51:00;22.03;;;15.67;;
20984;SDS011;10651;47.552;7.606;2023-01-19T20:53:36;19.20;;;14.77;;
20984;SDS011;10651;47.552;7.606;2023-01-19T20:56:06;23.53;;;15.13;;
20984;SDS011;10651;47.552;7.606;2023-01-19T20:58:35;24.37;;;15.17;;
20984;SDS011;10651;47.552;7.606;2023-01-19T21:01:11;22.63;;;15.67;;
20984;SDS011;10651;47.552;7.606;2023-01-19T21:03:40;18.03;;;15.10;;
20984;SDS011;10651;47.552;7.606;2023-01-19T21:06:06;22.47;;;15.23;;
20984;SDS011;10651;47.552;7.606;2023-01-19T21:08:32;21.93;;;14.40;;
20984;SDS011;10651;47.552;7.606;2023-01-19T21:10:58;21.27;;;16.27;;
20984;SDS011;10651;47.552;7.606;2023-01-19T21:13:23;25.33;;;15.97;;
20984;SDS011;10651;47.552;7.606;2023-01-19T21:15:50;26.67;;;16.40;;
20984;SDS011;10651;47.552;7.606;2023-01-19T21:18:16;23.70;;;15.97;;
20984;SDS011;10651;47.552;7.606;2023-01-19T21:20:42;21.03;;;15.33;;
20984;SDS011;10651;47.552;7.606;2023-01-19T21:23:09;27.30;;;16.50;;
20984;SDS011;10651;47.552;7.606;2023-01-19T21:25:35;29.00;;;15.57;;
20984;SDS011;10651;47.552;7.606;2023-01-19T21:28:01;22.50;;;17.03;;
20984;SDS011;10651;47.552;7.606;2023-01-19T21:30:27;23.20;;;16.77;;
20984;SDS011;10651;47.552;7.606;2023-01-19T21:32:53;23.63;;;15.73;;
20984;SDS011;10651;47.552;7.606;2023-01-19T21:35:19;21.37;;;16.60;;
20984;SDS011;10651;47.552;7.606;2023-01-19T21:37:45;24.57;;;17.10;;
20984;SDS011;10651;47.552;7.606;2023-01-19T21:40:11;23.27;;;16.73;;
20984;SDS011;10651;47.552;7.606;2023-01-19T21:42:37;23.43;;;17.33;;
20984;SDS011;10651;47.552;7.606;2023-01-19T21:45:05;26.13;;;16.63;;
20984;SDS011;10651;47.552;7.606;2023-01-19T21:47:33;32.90;;;18.10;;
20984;SDS011;10651;47.552;7.606;2023-01-19T21:50:00;25.90;;;16.63;;
20984;SDS011;10651;47.552;7.606;2023-01-19T21:52:25;24.07;;;17.13;;
20984;SDS011;10651;47.552;7.606;2023-01-19T21:54:51;22.83;;;17.63;;